Time;durP1;ratioP1;P1;durP2;ratioP2;P2;SDS_P1;SDS_P2;PMS_P1;PMS_P2;Temp;Humidity;BMP_temperature;BMP_pressure;BME280_temperature;BME280_humidity;BME280_pressure;Samples;Min_cycle;Max_cycle;Signal;HPM_P1;HPM_P2
2023/03/13 00:00:00;;;;;;;23.53;14.43;;;11.60;93.50;;;;;;4589003;19;20449;-29
2023/03/13 00:01:42;;;;;;;24.77;14.33;;;11.60;93.60;;;;;;4588814;19;21041;-28
2023/03/13 00:03:13;;;;;;;25.90;15.13;;;11.60;93.60;;;;;;4587096;19;20429;-28
2023/03/13 00:04:45;;;;;;;24.77;15.55;;;11.60;93.80;;;;;;4586481;19;20475;-28
2023/03/13 00:06:16;;;;;;;23.33;14.52;;;11.60;93.60;;;;;;4587068;19;20015;-28
2023/03/13 00:07:48;;;;;;;27.43;15.67;;;11.60;93.40;;;;;;4587003;19;20473;-29
2023/03/13 00:09:22;;;;;;;24.38;14.70;;;11.60;93.40;;;;;;4587050;19;20461;-29
2023/03/13 00:10:53;;;;;;;25.50;15.67;;;11.60;93.50;;;;;;4586748;19;20014;-29
2023/03/13 00:12:25;;;;;;;27.40;14.83;;;11.60;93.40;;;;;;4586858;19;20888;-28
2023/03/13 00:13:58;;;;;;;21.02;14.07;;;11.60;93.30;;;;;;4586003;19;20436;-28
2023/03/13 00:15:31;;;;;;;25.10;14.30;;;11.60;93.30;;;;;;4587140;19;20040;-28
2023/03/13 00:17:02;;;;;;;24.13;13.75;;;11.60;93.40;;;;;;4586773;19;20469;-31
2023/03/13 00:18:33;;;;;;;22.88;14.15;;;11.60;93.30;;;;;;4586750;19;20102;-28
2023/03/13 00:20:07;;;;;;;23.03;14.03;;;11.60;93.20;;;;;;4586722;19;20019;-28
2023/03/13 00:21:40;;;;;;;23.13;14.37;;;11.60;93.40;;;;;;4586464;19;20524;-29
2023/03/13 00:23:12;;;;;;;25.13;13.93;;;11.60;93.50;;;;;;4586703;19;21036;-29
2023/03/13 00:24:45;;;;;;;23.63;14.07;;;11.60;93.40;;;;;;4586611;19;20476;-29
2023/03/13 00:26:18;;;;;;;21.95;13.82;;;11.60;93.40;;;;;;4586914;19;20543;-29
2023/03/13 00:27:49;;;;;;;23.87;14.03;;;11.60;93.50;;;;;;4587010;19;20111;-28
2023/03/13 00:29:21;;;;;;;25.02;13.90;;;11.50;93.70;;;;;;4586606;19;20436;-29
2023/03/13 00:31:00;;;;;;;23.87;13.03;;;11.50;94.10;;;;;;4586697;19;20034;-28
2023/03/13 00:32:33;;;;;;;21.90;13.97;;;11.40;93.90;;;;;;4586686;19;20443;-29
2023/03/13 00:34:04;;;;;;;23.02;13.80;;;11.50;93.90;;;;;;4585837;19;20501;-29
2023/03/13 00:35:35;;;;;;;23.38;14.30;;;11.50;93.80;;;;;;4587524;19;20029;-29
2023/03/13 00:37:08;;;;;;;23.30;14.17;;;11.50;93.80;;;;;;4588353;19;20018;-29
2023/03/13 00:38:40;;;;;;;22.60;14.20;;;11.50;93.80;;;;;;4588508;19;21053;-29
2023/03/13 00:40:12;;;;;;;25.10;14.18;;;11.50;93.70;;;;;;4587737;19;20528;-28
2023/03/13 00:41:44;;;;;;;;;;;11.50;93.90;;;;;;4588967;19;20371;-29
2023/03/13 00:43:15;;;;;;;23.43;13.93;;;11.50;93.90;;;;;;4588694;19;19915;-28
2023/03/13 00:44:46;;;;;;;23.98;14.07;;;11.50;93.90;;;;;;4588786;19;20425;-30
2023/03/13 00:46:19;;;;;;;28.00;14.80;;;11.50;93.80;;;;;;4588552;19;20011;-28
2023/03/13 00:47:50;;;;;;;22.90;12.97;;;11.50;94.00;;;;;;4588542;19;20013;-30
2023/03/13 00:49:21;;;;;;;22.15;13.80;;;11.50;94.00;;;;;;4588274;19;20436;-28
2023/03/13 00:50:53;;;;;;;23.65;13.82;;;11.50;94.00;;;;;;4588327;19;20010;-29
2023/03/13 00:52:26;;;;;;;22.80;12.68;;;11.50;94.00;;;;;;4588315;19;20423;-28
2023/03/13 00:54:01;;;;;;;23.23;13.93;;;11.50;93.90;;;;;;4587158;19;20039;-27
2023/03/13 00:55:34;;;;;;;23.97;15.03;;;11.50;94.20;;;;;;4588354;19;20410;-30
2023/03/13 00:57:06;;;;;;;22.93;13.53;;;11.50;94.20;;;;;;4588524;19;20424;-28
2023/03/13 00:58:41;;;;;;;21.50;13.07;;;11.50;94.30;;;;;;4588514;19;20470;-31
2023/03/13 01:00:15;;;;;;;20.70;13.47;;;11.50;94.20;;;;;;4587951;19;20452;-28
2023/03/13 01:01:47;;;;;;;20.93;12.87;;;11.50;94.20;;;;;;4591099;19;21218;-28
2023/03/13 01:03:19;;;;;;;22.33;12.88;;;11.50;94.20;;;;;;4592606;19;20441;-29
2023/03/13 01:04:53;;;;;;;18.10;11.30;;;11.50;94.40;;;;;;4592595;19;20022;-28
2023/03/13 01:06:26;;;;;;;18.67;12.17;;;11.50;94.40;;;;;;4592632;19;20787;-29
2023/03/13 01:07:57;;;;;;;23.53;12.60;;;11.50;94.30;;;;;;4592362;19;20440;-28
2023/03/13 01:09:30;;;;;;;21.13;13.90;;;11.50;94.50;;;;;;4592668;19;21156;-28
2023/03/13 01:11:05;;;;;;;23.67;10.83;;;11.50;94.50;;;;;;4592604;19;20442;-29
2023/03/13 01:12:37;;;;;;;20.03;12.27;;;11.50;94.50;;;;;;4592452;19;21028;-29
2023/03/13 01:14:17;;;;;;;22.87;13.57;;;11.50;94.60;;;;;;4591736;19;21062;-28
2023/03/13 01:15:49;;;;;;;18.53;10.43;;;11.40;94.80;;;;;;4591470;19;20417;-28
2023/03/13 01:17:20;;;;;;;20.52;11.30;;;11.40;94.70;;;;;;4592144;19;20444;-29
2023/03/13 01:18:54;;;;;;;15.20;9.80;;;11.40;94.80;;;;;;4592732;19;20449;-29
2023/03/13 01:20:29;;;;;;;14.87;9.30;;;11.40;94.90;;;;;;4592506;19;20469;-28
2023/03/13 01:22:01;;;;;;;15.87;9.67;;;11.40;95.10;;;;;;4591650;19;20425;-28
2023/03/13 01:23:33;;;;;;;16.00;9.00;;;11.50;95.20;;;;;;4591173;19;20466;-28
2023/03/13 01:25:06;;;;;;;16.90;9.10;;;11.50;95.30;;;;;;4592105;19;20416;-27
2023/03/13 01:26:40;;;;;;;15.57;9.73;;;11.50;95.40;;;;;;4592305;19;20519;-28
2023/03/13 01:28:11;;;;;;;14.95;9.27;;;11.40;95.50;;;;;;4592743;19;20474;-28
2023/03/13 01:29:43;;;;;;;13.63;9.80;;;11.40;95.50;;;;;;4592103;19;20383;-28
2023/03/13 01:31:18;;;;;;;14.63;8.73;;;11.40;95.50;;;;;;4592544;19;20038;-28
2023/03/13 01:32:50;;;;;;;16.80;10.70;;;11.50;95.50;;;;;;4591100;19;20074;-28
2023/03/13 01:34:22;;;;;;;18.23;11.47;;;11.40;95.50;;;;;;4590903;19;20479;-29
2023/03/13 01:36:00;;;;;;;15.23;9.85;;;11.40;95.60;;;;;;4591624;19;20493;-28
2023/03/13 01:37:33;;;;;;;13.20;8.37;;;11.40;95.80;;;;;;4591986;19;20025;-28
2023/03/13 01:39:05;;;;;;;13.23;8.32;;;11.40;95.80;;;;;;4592018;19;20516;-27
2023/03/13 01:40:46;;;;;;;17.80;10.13;;;11.40;95.70;;;;;;4592103;19;20022;-29
2023/03/13 01:42:19;;;;;;;20.03;11.17;;;11.40;95.80;;;;;;4592299;19;20038;-29
2023/03/13 01:43:51;;;;;;;18.27;11.00;;;11.40;95.90;;;;;;4591876;19;20482;-29
2023/03/13 01:45:59;;;;;;;13.43;8.90;;;11.40;95.90;;;;;;4591781;19;20504;-31
2023/03/13 01:47:31;;;;;;;13.60;8.50;;;11.40;96.10;;;;;;4592080;19;20443;-28
2023/03/13 01:49:32;;;;;;;15.70;9.10;;;11.40;96.10;;;;;;4591907;19;20948;-29
2023/03/13 01:51:07;;;;;;;13.70;8.50;;;11.40;96.30;;;;;;4591037;19;20445;-30
2023/03/13 01:52:39;;;;;;;13.57;8.10;;;11.40;96.30;;;;;;4591454;19;20535;-29
2023/03/13 01:54:15;;;;;;;14.93;8.30;;;11.40;96.40;;;;;;4589621;19;20475;-28
2023/03/13 01:55:47;;;;;;;13.07;7.37;;;11.40;96.50;;;;;;4591354;19;20424;-29
2023/03/13 01:57:24;;;;;;;11.43;7.63;;;11.40;96.50;;;;;;4590617;19;20509;-30
2023/03/13 01:58:55;;;;;;;10.80;7.20;;;11.40;96.60;;;;;;4590616;19;20020;-29
2023/03/13 02:00:31;;;;;;;11.27;6.83;;;11.40;96.70;;;;;;4590641;19;20465;-28
2023/03/13 02:02:03;;;;;;;9.07;6.17;;;11.40;96.80;;;;;;4589381;19;20513;-28
2023/03/13 02:03:34;;;;;;;11.27;7.57;;;11.30;96.80;;;;;;4590281;19;20440;-30
2023/03/13 02:05:09;;;;;;;10.63;6.63;;;11.40;96.90;;;;;;4591195;19;20019;-28
2023/03/13 02:06:43;;;;;;;12.77;7.07;;;11.40;97.00;;;;;;4590571;19;20436;-30
2023/03/13 02:08:17;;;;;;;11.63;6.80;;;11.40;97.10;;;;;;4590346;19;20795;-28
2023/03/13 02:09:51;;;;;;;12.90;7.00;;;11.40;97.10;;;;;;4591138;19;20890;-29
2023/03/13 02:11:51;;;;;;;10.03;6.60;;;11.40;97.10;;;;;;4590143;19;20467;-29
2023/03/13 02:13:22;;;;;;;11.63;6.93;;;11.40;97.20;;;;;;4589595;19;20487;-29
2023/03/13 02:14:55;;;;;;;11.27;7.43;;;11.30;97.20;;;;;;4590361;19;20437;-28
2023/03/13 02:16:28;;;;;;;10.00;6.80;;;11.30;97.40;;;;;;4590865;19;20536;-28
2023/03/13 02:18:00;;;;;;;11.60;7.53;;;11.40;97.30;;;;;;4591229;19;20437;-29
2023/03/13 02:19:41;;;;;;;14.27;8.03;;;11.40;97.20;;;;;;4589908;19;20480;-31
2023/03/13 02:21:19;;;;;;;12.33;7.80;;;11.30;97.20;;;;;;4590309;19;20520;-28
2023/03/13 02:23:09;;;;;;;10.57;7.60;;;11.30;97.30;;;;;;4589132;19;20417;-28
2023/03/13 02:25:11;;;;;;;12.23;7.43;;;11.30;97.30;;;;;;4589187;19;20480;-30
2023/03/13 02:26:45;;;;;;;12.23;8.50;;;11.30;97.40;;;;;;4589224;19;20417;-29
2023/03/13 02:28:17;;;;;;;12.27;7.50;;;11.30;97.40;;;;;;4588801;19;20462;-29
2023/03/13 02:29:50;;;;;;;13.17;7.67;;;11.30;97.50;;;;;;4589116;19;20025;-28
2023/03/13 02:31:22;;;;;;;11.93;8.48;;;11.30;97.50;;;;;;4588889;19;20429;-29
2023/03/13 02:32:54;;;;;;;11.93;8.60;;;11.30;97.60;;;;;;4589236;19;20011;-28
2023/03/13 02:34:29;;;;;;;12.03;8.23;;;11.30;97.60;;;;;;4587840;19;20437;-29
2023/03/13 02:36:00;;;;;;;10.97;7.67;;;11.30;97.60;;;;;;4588520;19;20483;-29
2023/03/13 02:37:32;;;;;;;12.85;8.35;;;11.30;97.70;;;;;;4588803;19;21050;-28
2023/03/13 02:39:04;;;;;;;14.40;9.07;;;11.40;97.70;;;;;;4588920;19;20010;-28
2023/03/13 02:40:39;;;;;;;10.77;8.47;;;11.30;97.70;;;;;;4588319;19;20838;-29
2023/03/13 02:42:11;;;;;;;11.63;8.50;;;11.30;97.80;;;;;;4588688;19;20429;-28
2023/03/13 02:43:43;;;;;;;11.73;8.87;;;11.40;97.80;;;;;;4588701;19;20485;-27
2023/03/13 02:45:15;;;;;;;13.18;9.40;;;11.30;97.80;;;;;;4588768;19;20481;-28
2023/03/13 02:46:51;;;;;;;12.23;8.90;;;11.30;97.90;;;;;;4588306;19;20053;-29
2023/03/13 02:48:44;;;;;;;13.83;9.10;;;11.40;97.90;;;;;;4588461;19;20429;-28
2023/03/13 02:50:16;;;;;;;13.35;9.35;;;11.30;98.00;;;;;;4588746;19;20429;-29
2023/03/13 02:51:49;;;;;;;15.30;9.73;;;11.40;98.00;;;;;;4588271;19;20500;-28
2023/03/13 02:53:21;;;;;;;12.10;9.20;;;11.30;98.00;;;;;;4587502;19;20505;-28
2023/03/13 02:55:21;;;;;;;13.47;9.50;;;11.30;98.10;;;;;;4590013;19;20440;-25
2023/03/13 02:56:56;;;;;;;10.90;9.23;;;11.20;98.30;;;;;;4589598;19;20536;-28
2023/03/13 02:58:27;;;;;;;14.17;9.53;;;11.20;98.40;;;;;;4589143;19;20433;-28
2023/03/13 02:59:59;;;;;;;13.20;9.05;;;11.20;98.40;;;;;;4589042;19;20499;-29
2023/03/13 03:01:30;;;;;;;13.65;9.00;;;11.20;98.50;;;;;;4589468;19;20044;-31
2023/03/13 03:03:01;;;;;;;11.25;8.38;;;11.30;98.50;;;;;;4590201;19;20018;-29
2023/03/13 03:04:32;;;;;;;12.50;10.30;;;11.30;98.60;;;;;;4591399;19;20014;-30
2023/03/13 03:06:04;;;;;;;18.40;10.75;;;11.30;98.60;;;;;;4590196;19;20011;-31
2023/03/13 03:07:35;;;;;;;;;;;11.30;98.60;;;;;;4590062;19;20010;-29
2023/03/13 03:09:07;;;;;;;13.63;9.73;;;11.40;98.70;;;;;;4590016;19;19930;-29
2023/03/13 03:10:39;;;;;;;13.77;10.00;;;11.40;98.70;;;;;;4590199;19;20459;-28
2023/03/13 03:12:11;;;;;;;12.93;9.67;;;11.30;98.70;;;;;;4590085;19;20474;-28
2023/03/13 03:13:43;;;;;;;15.30;10.40;;;11.30;98.90;;;;;;4591602;19;20792;-28
2023/03/13 03:15:15;;;;;;;15.70;10.48;;;11.20;98.90;;;;;;4590314;19;20007;-31
2023/03/13 03:16:46;;;;;;;13.73;9.70;;;11.20;99.00;;;;;;4590143;19;20027;-29
2023/03/13 03:18:18;;;;;;;14.38;10.35;;;11.20;99.10;;;;;;4589932;19;20007;-29
2023/03/13 03:19:49;;;;;;;13.20;10.98;;;11.20;99.20;;;;;;4590128;19;20017;-31
2023/03/13 03:21:22;;;;;;;13.38;9.80;;;11.20;99.20;;;;;;4589741;19;20041;-29
2023/03/13 03:22:54;;;;;;;14.43;10.80;;;11.10;99.20;;;;;;4589853;19;20034;-30
2023/03/13 03:24:25;;;;;;;13.43;9.88;;;11.10;99.30;;;;;;4588659;19;20771;-28
2023/03/13 03:25:56;;;;;;;14.60;11.02;;;11.10;99.40;;;;;;4590060;19;20011;-29
2023/03/13 03:27:30;;;;;;;13.70;10.23;;;11.10;99.40;;;;;;4589726;19;20023;-28
2023/03/13 03:29:02;;;;;;;16.03;11.13;;;11.10;99.40;;;;;;4589741;19;21154;-29
2023/03/13 03:30:35;;;;;;;16.53;10.53;;;11.10;99.40;;;;;;4589775;19;20460;-30
2023/03/13 03:32:06;;;;;;;15.05;10.35;;;11.10;99.50;;;;;;4589739;19;20437;-29
2023/03/13 03:33:38;;;;;;;14.30;12.00;;;11.10;99.50;;;;;;4589616;19;20070;-29
2023/03/13 03:35:10;;;;;;;14.20;10.83;;;11.10;99.50;;;;;;4589812;19;20007;-29
2023/03/13 03:36:42;;;;;;;14.57;11.67;;;11.10;99.60;;;;;;4589713;19;20425;-29
2023/03/13 03:38:15;;;;;;;15.90;11.33;;;11.10;99.60;;;;;;4589496;19;21076;-28
2023/03/13 03:39:46;;;;;;;17.07;11.70;;;11.10;99.70;;;;;;4588698;19;20452;-28
2023/03/13 03:41:19;;;;;;;17.50;12.43;;;11.10;99.70;;;;;;4589176;19;20425;-28
2023/03/13 03:42:52;;;;;;;16.90;11.93;;;11.10;99.70;;;;;;4588370;19;20551;-28
2023/03/13 03:44:24;;;;;;;15.68;11.13;;;11.10;99.80;;;;;;4589040;19;20485;-29
2023/03/13 03:45:55;;;;;;;17.20;11.93;;;11.10;99.80;;;;;;4587512;19;20015;-29
2023/03/13 03:47:27;;;;;;;14.17;11.03;;;11.10;99.80;;;;;;4588822;19;20018;-29
2023/03/13 03:48:59;;;;;;;16.70;12.05;;;11.10;99.90;;;;;;4589499;19;20425;-28
2023/03/13 03:50:31;;;;;;;16.87;13.13;;;11.10;99.90;;;;;;4589660;19;20002;-29
2023/03/13 03:52:03;;;;;;;18.10;12.43;;;11.10;99.90;;;;;;4589651;19;20543;-28
2023/03/13 03:53:35;;;;;;;17.10;13.13;;;11.10;99.90;;;;;;4588577;19;20007;-28
2023/03/13 03:55:07;;;;;;;18.05;14.02;;;11.10;99.90;;;;;;4589393;19;20429;-29
2023/03/13 03:56:38;;;;;;;16.83;12.80;;;11.20;99.90;;;;;;4589496;19;20014;-29
2023/03/13 03:58:09;;;;;;;17.48;13.10;;;11.10;99.90;;;;;;4589594;19;20015;-28
2023/03/13 03:59:42;;;;;;;16.80;13.43;;;11.10;99.90;;;;;;4589164;19;20019;-28
2023/03/13 04:01:15;;;;;;;17.80;13.33;;;11.10;99.90;;;;;;4588758;19;20782;-29
2023/03/13 04:02:46;;;;;;;18.60;12.70;;;11.10;99.90;;;;;;4589486;19;20413;-29
2023/03/13 04:04:18;;;;;;;19.07;14.10;;;11.10;99.90;;;;;;4588075;19;20018;-29
2023/03/13 04:05:52;;;;;;;20.07;14.67;;;11.10;99.90;;;;;;4588970;19;20524;-30
2023/03/13 04:07:23;;;;;;;18.98;13.70;;;11.20;99.90;;;;;;4589407;19;20444;-31
2023/03/13 04:08:57;;;;;;;18.17;14.37;;;11.20;99.90;;;;;;4589067;19;20502;-29
2023/03/13 04:10:28;;;;;;;18.85;14.00;;;11.20;99.90;;;;;;4589250;19;20546;-29
2023/03/13 04:12:02;;;;;;;20.23;15.40;;;11.20;99.90;;;;;;4589385;19;20021;-28
2023/03/13 04:13:34;;;;;;;18.20;14.63;;;11.20;99.90;;;;;;4588670;19;20656;-28
2023/03/13 04:15:06;;;;;;;20.07;15.43;;;11.20;99.90;;;;;;4588975;19;20346;-28
2023/03/13 04:16:38;;;;;;;19.73;14.73;;;11.20;99.90;;;;;;4587739;19;20437;-29
2023/03/13 04:18:09;;;;;;;21.48;16.02;;;11.20;99.90;;;;;;4588013;19;20055;-29
2023/03/13 04:19:40;;;;;;;23.20;15.18;;;11.20;99.90;;;;;;4588486;19;20365;-30
2023/03/13 04:21:12;;;;;;;19.70;14.75;;;11.10;99.90;;;;;;4589207;19;20007;-28
2023/03/13 04:22:43;;;;;;;18.77;15.13;;;11.20;99.90;;;;;;4587477;19;20390;-29
2023/03/13 04:24:16;;;;;;;23.87;16.27;;;11.10;99.90;;;;;;4588394;19;20018;-29
2023/03/13 04:25:50;;;;;;;23.50;15.70;;;11.10;99.90;;;;;;4588677;19;20421;-28
2023/03/13 04:27:23;;;;;;;20.47;14.30;;;11.20;99.90;;;;;;4588783;19;20425;-29
2023/03/13 04:28:55;;;;;;;22.77;15.83;;;11.10;99.90;;;;;;4588728;19;20425;-28
2023/03/13 04:30:26;;;;;;;24.25;15.73;;;11.10;99.90;;;;;;4588026;19;20444;-28
2023/03/13 04:31:59;;;;;;;21.87;15.43;;;11.10;99.90;;;;;;4588962;19;20586;-28
2023/03/13 04:33:30;;;;;;;19.58;15.48;;;11.20;99.90;;;;;;4588549;19;20462;-29
2023/03/13 04:35:04;;;;;;;22.47;14.63;;;11.20;99.90;;;;;;4588498;19;20040;-29
2023/03/13 04:36:37;;;;;;;24.93;15.63;;;11.20;99.90;;;;;;4592409;19;20472;-29
2023/03/13 04:38:09;;;;;;;22.90;16.47;;;11.20;99.90;;;;;;4593512;19;20421;-29
2023/03/13 04:39:42;;;;;;;24.20;15.33;;;11.20;99.90;;;;;;4593224;19;20496;-29
2023/03/13 04:41:13;;;;;;;21.88;15.60;;;11.20;99.90;;;;;;4594915;19;20456;-29
2023/03/13 04:42:46;;;;;;;22.13;14.73;;;11.20;99.90;;;;;;4593324;19;20014;-27
2023/03/13 04:44:18;;;;;;;19.03;14.30;;;11.20;99.90;;;;;;4593060;19;20811;-26
2023/03/13 04:45:55;;;;;;;;;;;11.30;99.90;;;;;;4592847;19;20472;-27
2023/03/13 04:47:26;;;;;;;22.17;15.50;;;11.50;99.90;;;;;;4592690;19;19942;-28
2023/03/13 04:48:58;;;;;;;24.23;16.00;;;11.60;99.90;;;;;;4594410;19;20495;-27
2023/03/13 04:50:29;;;;;;;20.98;16.20;;;11.60;99.90;;;;;;4594433;19;20011;-39
2023/03/13 04:52:00;;;;;;;21.83;15.77;;;11.60;99.90;;;;;;4591996;19;20010;-30
2023/03/13 04:53:32;;;;;;;42.37;25.77;;;11.60;99.90;;;;;;4591110;19;20019;-30
2023/03/13 04:55:04;;;;;;;28.45;20.70;;;11.60;99.90;;;;;;4593705;19;20449;-34
2023/03/13 04:56:35;;;;;;;22.70;16.48;;;11.60;99.90;;;;;;4592026;19;20551;-28
2023/03/13 04:58:07;;;;;;;25.77;18.53;;;11.50;99.90;;;;;;4591397;19;20070;-36
2023/03/13 04:59:39;;;;;;;24.27;16.92;;;11.50;99.90;;;;;;4589411;19;20495;-28
2023/03/13 05:01:11;;;;;;;22.73;17.37;;;11.40;99.90;;;;;;4591131;19;20029;-31
2023/03/13 05:02:43;;;;;;;26.30;19.20;;;11.40;99.90;;;;;;4593160;19;20461;-35
2023/03/13 05:04:14;;;;;;;;;;;11.40;99.90;;;;;;4594184;19;20769;-32
2023/03/13 05:05:45;;;;;;;115.80;65.27;;;11.40;99.90;;;;;;4592881;19;19919;-33
2023/03/13 05:07:17;;;;;;;41.70;26.48;;;11.40;99.90;;;;;;4593770;19;20482;-34
2023/03/13 05:08:48;;;;;;;26.27;18.55;;;11.40;99.90;;;;;;4592992;19;20014;-28
2023/03/13 05:10:19;;;;;;;26.08;18.85;;;11.40;99.90;;;;;;4593281;19;20018;-34
2023/03/13 05:11:51;;;;;;;30.05;20.75;;;11.50;99.90;;;;;;4592095;19;20070;-31
2023/03/13 05:13:22;;;;;;;24.55;18.13;;;11.50;99.90;;;;;;4592410;19;20528;-32
2023/03/13 05:14:53;;;;;;;26.75;19.70;;;11.50;99.90;;;;;;4590933;19;20018;-33
2023/03/13 05:16:25;;;;;;;22.77;18.05;;;11.60;99.90;;;;;;4593726;19;20028;-38
2023/03/13 05:17:56;;;;;;;24.95;17.85;;;11.60;99.90;;;;;;4593464;19;20011;-31
2023/03/13 05:19:27;;;;;;;24.85;17.27;;;11.60;99.90;;;;;;4592927;19;20010;-28
2023/03/13 05:20:59;;;;;;;25.77;18.83;;;11.70;99.90;;;;;;4592098;19;20078;-29
2023/03/13 05:22:31;;;;;;;22.55;16.27;;;11.70;99.90;;;;;;4592201;19;20592;-32
2023/03/13 05:24:02;;;;;;;23.63;16.35;;;11.80;99.90;;;;;;4593810;19;20022;-28
2023/03/13 05:25:34;;;;;;;22.20;16.23;;;11.90;99.90;;;;;;4591818;19;20025;-37
2023/03/13 05:27:05;;;;;;;28.42;17.77;;;11.90;99.90;;;;;;4592092;19;20070;-29
2023/03/13 05:28:36;;;;;;;24.25;18.80;;;11.90;99.90;;;;;;4592049;19;20021;-29
2023/03/13 05:30:10;;;;;;;25.35;18.67;;;11.80;99.90;;;;;;4591887;19;20018;-38
2023/03/13 05:31:41;;;;;;;22.57;17.00;;;11.80;99.90;;;;;;4592704;19;20014;-38
2023/03/13 05:33:12;;;;;;;23.92;18.48;;;11.90;99.90;;;;;;4591293;19;20517;-29
2023/03/13 05:34:43;;;;;;;24.77;18.73;;;11.80;99.90;;;;;;4590839;19;20018;-28
2023/03/13 05:36:15;;;;;;;23.88;17.45;;;11.70;99.90;;;;;;4592617;19;20014;-29
2023/03/13 05:37:46;;;;;;;21.65;16.80;;;11.80;99.90;;;;;;4589770;19;20023;-28
2023/03/13 05:39:18;;;;;;;24.85;17.55;;;11.80;99.90;;;;;;4590925;19;20022;-29
2023/03/13 05:40:49;;;;;;;27.77;18.13;;;11.80;99.90;;;;;;4592222;19;20047;-29
2023/03/13 05:42:20;;;;;;;25.88;16.98;;;11.80;99.90;;;;;;4593201;19;20034;-29
2023/03/13 05:43:52;;;;;;;34.03;19.85;;;11.70;99.90;;;;;;4591509;19;20026;-29
2023/03/13 05:45:24;;;;;;;25.30;17.97;;;11.70;99.90;;;;;;4592988;19;20499;-29
2023/03/13 05:46:56;;;;;;;54.60;30.53;;;11.70;99.90;;;;;;4591099;19;20588;-28
2023/03/13 05:48:27;;;;;;;92.32;61.55;;;11.70;99.90;;;;;;4592292;19;20453;-27
2023/03/13 05:49:58;;;;;;;103.70;71.13;;;11.70;99.90;;;;;;4592294;19;20480;-29
2023/03/13 05:51:30;;;;;;;69.55;49.55;;;11.70;99.90;;;;;;4591983;19;20018;-32
2023/03/13 05:53:01;;;;;;;32.53;24.00;;;11.70;99.90;;;;;;4590791;19;20478;-26
2023/03/13 05:54:33;;;;;;;;;;;11.70;99.90;;;;;;4590812;19;20480;-28
2023/03/13 05:56:04;;;;;;;43.63;27.03;;;11.70;99.90;;;;;;4590772;19;19923;-33
2023/03/13 05:57:35;;;;;;;39.67;22.88;;;11.70;99.90;;;;;;4590228;19;20023;-33
2023/03/13 05:59:07;;;;;;;35.80;22.37;;;11.80;99.90;;;;;;4589984;19;20360;-29
2023/03/13 06:00:39;;;;;;;37.03;21.63;;;11.80;99.90;;;;;;4590154;19;20494;-29
2023/03/13 06:02:11;;;;;;;32.57;20.23;;;11.80;99.90;;;;;;4591237;19;20099;-23
2023/03/13 06:03:43;;;;;;;29.77;20.00;;;11.80;99.90;;;;;;4591486;19;20456;-28
2023/03/13 06:05:17;;;;;;;26.77;18.80;;;11.80;99.90;;;;;;4590833;19;20457;-26
2023/03/13 06:06:48;;;;;;;28.88;19.08;;;11.80;99.90;;;;;;4587897;19;20576;-27
2023/03/13 06:08:21;;;;;;;25.83;18.87;;;11.80;99.90;;;;;;4588793;19;20021;-28
2023/03/13 06:09:52;;;;;;;23.40;18.30;;;11.80;99.90;;;;;;4589510;19;20429;-28
2023/03/13 06:11:23;;;;;;;24.02;18.98;;;11.80;99.90;;;;;;4590102;19;20039;-30
2023/03/13 06:12:55;;;;;;;25.07;18.23;;;11.90;99.90;;;;;;4592274;19;20018;-28
2023/03/13 06:14:26;;;;;;;25.65;18.27;;;11.90;99.90;;;;;;4590832;19;20464;-29
2023/03/13 06:15:57;;;;;;;27.60;21.75;;;11.90;99.90;;;;;;4591803;19;20037;-29
2023/03/13 06:17:29;;;;;;;;;;;12.00;99.90;;;;;;4592122;19;20500;-29
2023/03/13 06:19:01;;;;;;;30.00;25.38;;;12.00;99.90;;;;;;4589634;19;19928;-28
2023/03/13 06:20:32;;;;;;;37.70;25.75;;;12.00;99.90;;;;;;4590166;19;20022;-28
2023/03/13 06:22:03;;;;;;;42.83;25.08;;;11.90;99.90;;;;;;4590135;19;20015;-30
2023/03/13 06:23:35;;;;;;;33.40;23.77;;;11.90;99.90;;;;;;4589508;19;20074;-29
2023/03/13 06:25:07;;;;;;;30.15;20.17;;;11.90;99.90;;;;;;4588353;19;20014;-29
2023/03/13 06:26:40;;;;;;;24.13;17.97;;;12.00;99.90;;;;;;4589739;19;20086;-30
2023/03/13 06:28:11;;;;;;;28.67;20.13;;;12.00;99.90;;;;;;4590473;19;20517;-29
2023/03/13 06:29:42;;;;;;;20.63;17.27;;;12.00;99.90;;;;;;4591183;19;20132;-32
2023/03/13 06:31:13;;;;;;;21.10;17.80;;;12.00;99.90;;;;;;4591009;19;20086;-29
2023/03/13 06:32:44;;;;;;;18.88;16.08;;;12.00;99.90;;;;;;4591091;19;20051;-29
2023/03/13 06:34:16;;;;;;;19.30;16.20;;;12.00;99.90;;;;;;4589671;19;20032;-31
2023/03/13 06:35:47;;;;;;;;;;;12.00;99.90;;;;;;4591185;19;20014;-27
2023/03/13 06:37:19;;;;;;;18.35;15.75;;;12.00;99.90;;;;;;4589932;19;19926;-28
2023/03/13 06:38:50;;;;;;;26.70;19.63;;;12.00;99.90;;;;;;4589729;19;20464;-28
2023/03/13 06:40:22;;;;;;;36.00;25.88;;;12.00;99.90;;;;;;4589666;19;20086;-29
2023/03/13 06:41:53;;;;;;;33.17;23.60;;;12.00;99.90;;;;;;4590199;19;20018;-29
2023/03/13 06:43:25;;;;;;;33.53;22.35;;;12.20;99.90;;;;;;4590668;19;20019;-29
2023/03/13 06:44:58;;;;;;;25.97;19.70;;;12.20;99.90;;;;;;4590951;19;20006;-29
2023/03/13 06:46:30;;;;;;;21.90;16.52;;;12.20;99.90;;;;;;4590618;19;20455;-31
2023/03/13 06:48:01;;;;;;;;;;;12.20;99.90;;;;;;4591597;19;20007;-33
2023/03/13 06:49:32;;;;;;;16.05;12.30;;;12.20;99.90;;;;;;4590844;19;19974;-35
2023/03/13 06:51:04;;;;;;;17.98;13.43;;;12.10;99.90;;;;;;4590807;19;20019;-33
2023/03/13 06:52:37;;;;;;;16.77;13.00;;;12.10;99.90;;;;;;4590349;19;20023;-30
2023/03/13 06:54:09;;;;;;;17.98;13.10;;;12.10;99.90;;;;;;4590314;19;20436;-28
2023/03/13 06:55:42;;;;;;;16.37;12.57;;;12.00;99.90;;;;;;4590468;19;20025;-31
2023/03/13 06:57:14;;;;;;;17.63;13.53;;;12.00;99.90;;;;;;4590391;19;20433;-37
2023/03/13 06:58:47;;;;;;;17.95;13.98;;;12.00;99.90;;;;;;4588669;19;20475;-32
2023/03/13 07:00:19;;;;;;;17.70;14.80;;;12.00;99.90;;;;;;4590363;19;20037;-30
2023/03/13 07:01:51;;;;;;;18.77;13.98;;;12.00;99.90;;;;;;4588587;19;20449;-35
2023/03/13 07:03:23;;;;;;;;;;;12.00;99.90;;;;;;4590087;19;20014;-37
2023/03/13 07:04:54;;;;;;;19.85;12.55;;;12.00;99.90;;;;;;4589971;19;19918;-32
2023/03/13 07:06:26;;;;;;;16.98;13.45;;;12.00;99.90;;;;;;4589640;19;20350;-32
2023/03/13 07:07:58;;;;;;;17.77;13.90;;;12.10;99.90;;;;;;4589235;19;20006;-33
2023/03/13 07:09:30;;;;;;;18.80;14.10;;;12.00;99.90;;;;;;4589129;19;20635;-30
2023/03/13 07:11:03;;;;;;;17.75;13.27;;;12.00;99.90;;;;;;4590041;19;20432;-27
2023/03/13 07:12:36;;;;;;;15.57;12.37;;;12.00;99.90;;;;;;4590197;19;20610;-29
2023/03/13 07:14:09;;;;;;;17.80;12.60;;;12.00;99.90;;;;;;4589668;19;21069;-34
2023/03/13 07:15:42;;;;;;;16.43;11.83;;;12.10;99.90;;;;;;4589926;19;20441;-33
2023/03/13 07:17:14;;;;;;;17.23;12.83;;;12.10;99.90;;;;;;4590199;19;20436;-30
2023/03/13 07:18:45;;;;;;;18.77;13.45;;;12.10;99.90;;;;;;4589312;19;20441;-38
2023/03/13 07:20:18;;;;;;;18.77;13.70;;;12.10;99.90;;;;;;4589896;19;20014;-31
2023/03/13 07:21:51;;;;;;;17.55;12.55;;;12.10;99.90;;;;;;4588876;19;20421;-28
2023/03/13 07:23:23;;;;;;;16.90;12.30;;;12.10;99.90;;;;;;4589503;19;20014;-29
2023/03/13 07:24:54;;;;;;;18.13;12.13;;;12.10;99.90;;;;;;4589108;19;20523;-29
2023/03/13 07:26:26;;;;;;;18.40;12.25;;;12.10;99.90;;;;;;4589491;19;20476;-29
2023/03/13 07:28:00;;;;;;;21.27;12.13;;;12.10;99.90;;;;;;4589574;19;20018;-34
2023/03/13 07:29:32;;;;;;;15.10;11.80;;;12.10;99.90;;;;;;4589593;19;20449;-29
2023/03/13 07:31:13;;;;;;;15.50;11.67;;;12.00;99.90;;;;;;4588638;19;20814;-30
2023/03/13 07:32:48;;;;;;;15.37;11.20;;;12.10;99.90;;;;;;4584199;19;21063;-28
2023/03/13 07:34:19;;;;;;;16.98;10.52;;;12.10;99.90;;;;;;4588563;19;21060;-33
2023/03/13 07:35:51;;;;;;;14.50;10.27;;;12.10;99.90;;;;;;4589576;19;20037;-35
2023/03/13 07:37:22;;;;;;;13.30;9.57;;;12.10;99.90;;;;;;4589056;19;20444;-29
2023/03/13 07:38:54;;;;;;;18.75;12.18;;;12.10;99.90;;;;;;4589026;19;20339;-30
2023/03/13 07:40:26;;;;;;;15.67;11.67;;;12.10;99.90;;;;;;4589518;19;20022;-29
2023/03/13 07:41:57;;;;;;;17.65;11.55;;;12.10;99.90;;;;;;4589626;19;20417;-29
2023/03/13 07:43:30;;;;;;;14.88;10.32;;;12.10;99.90;;;;;;4590082;19;20375;-28
2023/03/13 07:45:01;;;;;;;18.70;11.17;;;12.10;99.90;;;;;;4588324;19;20042;-29
2023/03/13 07:46:33;;;;;;;;;;;12.10;99.90;;;;;;4589715;19;20440;-32
2023/03/13 07:48:04;;;;;;;21.00;10.87;;;12.10;99.90;;;;;;4589345;19;19918;-33
2023/03/13 07:49:40;;;;;;;;;;;12.10;99.90;;;;;;4590784;19;20007;-29
2023/03/13 07:51:15;;;;;;;16.90;10.10;;;12.10;99.90;;;;;;4588298;19;19923;-32
2023/03/13 07:52:46;;;;;;;16.83;10.57;;;12.20;99.90;;;;;;4588732;19;20915;-29
2023/03/13 07:54:18;;;;;;;15.55;10.27;;;12.10;99.90;;;;;;4588956;19;20737;-34